sensor_id;sensor_type;location;lat;lon;timestamp;P1;durP1;ratioP1;P2;durP2;ratioP2
13335;SDS011;6737;51.480;11.962;2023-02-01T00:01:50;8.97;;;2.93;;
13335;SDS011;6737;51.480;11.962;2023-02-01T00:04:16;8.70;;;2.83;;
13335;SDS011;6737;51.480;11.962;2023-02-01T00:06:41;10.17;;;2.80;;
13335;SDS011;6737;51.480;11.962;2023-02-01T00:09:07;7.20;;;2.47;;
13335;SDS011;6737;51.480;11.962;2023-02-01T00:11:33;9.83;;;2.70;;
13335;SDS011;6737;51.480;11.962;2023-02-01T00:13:59;12.60;;;2.70;;
13335;SDS011;6737;51.480;11.962;2023-02-01T00:16:26;9.53;;;2.33;;
13335;SDS011;6737;51.480;11.962;2023-02-01T00:19:00;11.87;;;2.10;;
13335;SDS011;6737;51.480;11.962;2023-02-01T00:21:31;7.50;;;2.10;;
13335;SDS011;6737;51.480;11.962;2023-02-01T00:23:57;8.50;;;2.57;;
13335;SDS011;6737;51.480;11.962;2023-02-01T00:26:43;10.50;;;2.03;;
13335;SDS011;6737;51.480;11.962;2023-02-01T00:29:14;8.50;;;2.30;;
13335;SDS011;6737;51.480;11.962;2023-02-01T00:31:42;8.80;;;2.20;;
13335;SDS011;6737;51.480;11.962;2023-02-01T00:34:12;9.70;;;2.10;;
13335;SDS011;6737;51.480;11.962;2023-02-01T00:36:41;9.77;;;2.53;;
13335;SDS011;6737;51.480;11.962;2023-02-01T00:39:08;10.07;;;2.23;;
13335;SDS011;6737;51.480;11.962;2023-02-01T00:41:34;8.07;;;1.90;;
13335;SDS011;6737;51.480;11.962;2023-02-01T00:44:00;9.00;;;2.37;;
13335;SDS011;6737;51.480;11.962;2023-02-01T00:46:27;7.67;;;1.83;;
13335;SDS011;6737;51.480;11.962;2023-02-01T00:48:53;7.33;;;2.03;;
13335;SDS011;6737;51.480;11.962;2023-02-01T00:51:21;8.37;;;2.20;;
13335;SDS011;6737;51.480;11.962;2023-02-01T00:53:48;8.47;;;2.20;;
13335;SDS011;6737;51.480;11.962;2023-02-01T00:56:15;8.97;;;2.10;;
13335;SDS011;6737;51.480;11.962;2023-02-01T00:58:41;7.07;;;1.97;;
13335;SDS011;6737;51.480;11.962;2023-02-01T01:01:07;9.83;;;2.00;;
13335;SDS011;6737;51.480;11.962;2023-02-01T01:03:36;11.23;;;2.03;;
13335;SDS011;6737;51.480;11.962;2023-02-01T01:06:06;11.83;;;2.50;;
13335;SDS011;6737;51.480;11.962;2023-02-01T01:08:34;8.97;;;2.63;;
13335;SDS011;6737;51.480;11.962;2023-02-01T01:11:11;10.17;;;2.10;;
13335;SDS011;6737;51.480;11.962;2023-02-01T01:13:39;9.50;;;1.97;;
13335;SDS011;6737;51.480;11.962;2023-02-01T01:16:06;11.03;;;2.37;;
13335;SDS011;6737;51.480;11.962;2023-02-01T01:18:33;10.40;;;2.40;;
13335;SDS011;6737;51.480;11.962;2023-02-01T01:21:00;12.80;;;2.40;;
13335;SDS011;6737;51.480;11.962;2023-02-01T01:23:27;7.53;;;2.40;;
13335;SDS011;6737;51.480;11.962;2023-02-01T01:25:53;9.07;;;2.00;;
13335;SDS011;6737;51.480;11.962;2023-02-01T01:28:19;9.87;;;2.10;;
13335;SDS011;6737;51.480;11.962;2023-02-01T01:30:44;6.50;;;2.20;;
13335;SDS011;6737;51.480;11.962;2023-02-01T01:33:10;7.63;;;1.93;;
13335;SDS011;6737;51.480;11.962;2023-02-01T01:35:36;8.47;;;2.33;;
13335;SDS011;6737;51.480;11.962;2023-02-01T01:38:02;10.07;;;2.67;;
13335;SDS011;6737;51.480;11.962;2023-02-01T01:40:28;10.00;;;2.60;;
13335;SDS011;6737;51.480;11.962;2023-02-01T01:42:55;7.17;;;2.10;;
13335;SDS011;6737;51.480;11.962;2023-02-01T01:47:52;8.33;;;2.47;;
13335;SDS011;6737;51.480;11.962;2023-02-01T01:50:28;9.53;;;2.00;;
13335;SDS011;6737;51.480;11.962;2023-02-01T01:53:03;6.20;;;2.20;;
13335;SDS011;6737;51.480;11.962;2023-02-01T01:55:33;11.97;;;2.50;;
13335;SDS011;6737;51.480;11.962;2023-02-01T01:58:04;10.47;;;2.70;;
13335;SDS011;6737;51.480;11.962;2023-02-01T02:00:33;13.10;;;2.90;;
13335;SDS011;6737;51.480;11.962;2023-02-01T02:03:00;6.47;;;2.43;;
13335;SDS011;6737;51.480;11.962;2023-02-01T02:05:34;11.10;;;2.27;;
13335;SDS011;6737;51.480;11.962;2023-02-01T02:08:00;9.73;;;2.43;;
13335;SDS011;6737;51.480;11.962;2023-02-01T02:10:26;9.00;;;2.70;;
13335;SDS011;6737;51.480;11.962;2023-02-01T02:13:13;8.83;;;2.63;;
13335;SDS011;6737;51.480;11.962;2023-02-01T02:15:42;10.07;;;2.77;;
13335;SDS011;6737;51.480;11.962;2023-02-01T02:18:21;11.80;;;2.67;;
13335;SDS011;6737;51.480;11.962;2023-02-01T02:32:16;11.70;;;2.90;;
13335;SDS011;6737;51.480;11.962;2023-02-01T02:37:41;9.93;;;2.50;;
13335;SDS011;6737;51.480;11.962;2023-02-01T02:46:14;13.77;;;2.53;;
13335;SDS011;6737;51.480;11.962;2023-02-01T02:49:20;8.03;;;2.37;;
13335;SDS011;6737;51.480;11.962;2023-02-01T02:52:16;12.57;;;2.90;;
13335;SDS011;6737;51.480;11.962;2023-02-01T02:55:04;10.30;;;2.20;;
13335;SDS011;6737;51.480;11.962;2023-02-01T02:57:37;9.90;;;2.77;;
13335;SDS011;6737;51.480;11.962;2023-02-01T03:00:30;11.10;;;3.00;;
13335;SDS011;6737;51.480;11.962;2023-02-01T03:03:17;11.60;;;2.10;;
13335;SDS011;6737;51.480;11.962;2023-02-01T03:06:01;14.73;;;2.47;;
13335;SDS011;6737;51.480;11.962;2023-02-01T03:08:28;11.27;;;2.70;;
13335;SDS011;6737;51.480;11.962;2023-02-01T03:11:05;12.13;;;3.17;;
13335;SDS011;6737;51.480;11.962;2023-02-01T03:13:46;8.37;;;2.40;;
13335;SDS011;6737;51.480;11.962;2023-02-01T03:16:32;11.67;;;2.50;;
13335;SDS011;6737;51.480;11.962;2023-02-01T03:19:08;10.57;;;2.70;;
13335;SDS011;6737;51.480;11.962;2023-02-01T03:21:44;7.07;;;2.10;;
13335;SDS011;6737;51.480;11.962;2023-02-01T03:24:16;10.17;;;2.27;;
13335;SDS011;6737;51.480;11.962;2023-02-01T03:26:52;9.57;;;2.53;;
13335;SDS011;6737;51.480;11.962;2023-02-01T03:29:22;10.63;;;2.60;;
13335;SDS011;6737;51.480;11.962;2023-02-01T03:31:52;8.60;;;2.27;;
13335;SDS011;6737;51.480;11.962;2023-02-01T03:34:18;12.83;;;2.67;;
13335;SDS011;6737;51.480;11.962;2023-02-01T03:39:22;11.47;;;2.77;;
13335;SDS011;6737;51.480;11.962;2023-02-01T03:42:02;15.07;;;2.87;;
13335;SDS011;6737;51.480;11.962;2023-02-01T03:44:32;17.50;;;3.00;;
13335;SDS011;6737;51.480;11.962;2023-02-01T03:47:37;12.03;;;2.87;;
13335;SDS011;6737;51.480;11.962;2023-02-01T03:50:43;9.87;;;2.73;;
13335;SDS011;6737;51.480;11.962;2023-02-01T03:52:52;11.17;;;2.70;;
13335;SDS011;6737;51.480;11.962;2023-02-01T03:55:31;11.10;;;2.93;;
13335;SDS011;6737;51.480;11.962;2023-02-01T03:58:03;8.90;;;2.67;;
13335;SDS011;6737;51.480;11.962;2023-02-01T04:00:37;11.03;;;2.60;;
13335;SDS011;6737;51.480;11.962;2023-02-01T04:03:04;10.43;;;2.60;;
13335;SDS011;6737;51.480;11.962;2023-02-01T04:05:32;15.73;;;3.03;;
13335;SDS011;6737;51.480;11.962;2023-02-01T04:08:10;15.23;;;2.67;;
13335;SDS011;6737;51.480;11.962;2023-02-01T04:10:36;14.07;;;3.33;;
13335;SDS011;6737;51.480;11.962;2023-02-01T04:13:02;10.93;;;3.00;;
13335;SDS011;6737;51.480;11.962;2023-02-01T04:15:27;14.37;;;2.90;;
13335;SDS011;6737;51.480;11.962;2023-02-01T04:17:53;14.83;;;2.90;;
13335;SDS011;6737;51.480;11.962;2023-02-01T04:20:19;9.43;;;2.43;;
13335;SDS011;6737;51.480;11.962;2023-02-01T04:22:45;10.60;;;2.50;;
13335;SDS011;6737;51.480;11.962;2023-02-01T04:25:10;9.07;;;2.40;;
13335;SDS011;6737;51.480;11.962;2023-02-01T04:27:36;12.63;;;3.03;;
13335;SDS011;6737;51.480;11.962;2023-02-01T04:30:03;10.37;;;2.53;;
13335;SDS011;6737;51.480;11.962;2023-02-01T04:32:29;10.63;;;2.77;;
13335;SDS011;6737;51.480;11.962;2023-02-01T04:34:55;14.20;;;2.67;;
13335;SDS011;6737;51.480;11.962;2023-02-01T04:37:21;10.90;;;2.93;;
13335;SDS011;6737;51.480;11.962;2023-02-01T04:39:46;12.50;;;2.87;;
13335;SDS011;6737;51.480;11.962;2023-02-01T04:42:12;11.93;;;2.73;;
13335;SDS011;6737;51.480;11.962;2023-02-01T04:44:38;12.90;;;2.80;;
13335;SDS011;6737;51.480;11.962;2023-02-01T04:47:07;14.00;;;3.33;;
13335;SDS011;6737;51.480;11.962;2023-02-01T04:49:33;16.60;;;2.30;;
13335;SDS011;6737;51.480;11.962;2023-02-01T04:51:59;12.23;;;2.60;;
13335;SDS011;6737;51.480;11.962;2023-02-01T04:54:24;15.93;;;2.87;;
13335;SDS011;6737;51.480;11.962;2023-02-01T04:56:50;13.60;;;2.53;;
13335;SDS011;6737;51.480;11.962;2023-02-01T04:59:16;9.50;;;2.03;;
13335;SDS011;6737;51.480;11.962;2023-02-01T05:01:42;9.97;;;2.40;;
13335;SDS011;6737;51.480;11.962;2023-02-01T05:04:08;12.77;;;2.40;;
13335;SDS011;6737;51.480;11.962;2023-02-01T05:06:33;12.33;;;2.67;;
13335;SDS011;6737;51.480;11.962;2023-02-01T05:08:59;9.13;;;2.50;;
13335;SDS011;6737;51.480;11.962;2023-02-01T05:11:25;11.67;;;2.40;;
13335;SDS011;6737;51.480;11.962;2023-02-01T05:14:09;9.70;;;2.40;;
13335;SDS011;6737;51.480;11.962;2023-02-01T05:16:35;7.53;;;2.30;;
13335;SDS011;6737;51.480;11.962;2023-02-01T05:19:01;13.67;;;2.47;;
13335;SDS011;6737;51.480;11.962;2023-02-01T05:21:26;13.17;;;2.40;;
13335;SDS011;6737;51.480;11.962;2023-02-01T05:23:53;12.00;;;2.70;;
13335;SDS011;6737;51.480;11.962;2023-02-01T05:26:37;13.30;;;2.70;;
13335;SDS011;6737;51.480;11.962;2023-02-01T05:29:07;11.67;;;2.77;;
13335;SDS011;6737;51.480;11.962;2023-02-01T05:31:34;11.77;;;2.70;;
13335;SDS011;6737;51.480;11.962;2023-02-01T05:34:00;11.37;;;2.90;;
13335;SDS011;6737;51.480;11.962;2023-02-01T05:36:26;9.53;;;2.63;;
13335;SDS011;6737;51.480;11.962;2023-02-01T05:38:52;10.10;;;2.70;;
13335;SDS011;6737;51.480;11.962;2023-02-01T05:41:18;12.20;;;3.07;;
13335;SDS011;6737;51.480;11.962;2023-02-01T05:43:43;11.27;;;3.07;;
13335;SDS011;6737;51.480;11.962;2023-02-01T05:46:09;11.17;;;3.00;;
13335;SDS011;6737;51.480;11.962;2023-02-01T05:48:37;11.10;;;2.80;;
13335;SDS011;6737;51.480;11.962;2023-02-01T05:51:04;8.20;;;3.03;;
13335;SDS011;6737;51.480;11.962;2023-02-01T05:53:30;10.33;;;3.00;;
13335;SDS011;6737;51.480;11.962;2023-02-01T05:55:56;9.97;;;3.20;;
13335;SDS011;6737;51.480;11.962;2023-02-01T05:58:21;10.40;;;3.10;;
13335;SDS011;6737;51.480;11.962;2023-02-01T06:00:47;13.73;;;3.77;;
13335;SDS011;6737;51.480;11.962;2023-02-01T06:03:13;11.53;;;2.83;;
13335;SDS011;6737;51.480;11.962;2023-02-01T06:05:38;14.10;;;2.77;;
13335;SDS011;6737;51.480;11.962;2023-02-01T06:08:04;9.20;;;2.70;;
13335;SDS011;6737;51.480;11.962;2023-02-01T06:10:33;10.60;;;2.63;;
13335;SDS011;6737;51.480;11.962;2023-02-01T06:12:59;12.93;;;3.00;;
13335;SDS011;6737;51.480;11.962;2023-02-01T06:15:25;6.97;;;2.70;;
13335;SDS011;6737;51.480;11.962;2023-02-01T06:17:50;6.83;;;2.50;;
13335;SDS011;6737;51.480;11.962;2023-02-01T06:20:16;10.23;;;2.50;;
13335;SDS011;6737;51.480;11.962;2023-02-01T06:22:42;8.40;;;2.57;;
13335;SDS011;6737;51.480;11.962;2023-02-01T06:25:09;9.53;;;2.53;;
13335;SDS011;6737;51.480;11.962;2023-02-01T06:27:35;9.57;;;2.50;;
13335;SDS011;6737;51.480;11.962;2023-02-01T06:30:01;9.93;;;2.50;;
13335;SDS011;6737;51.480;11.962;2023-02-01T06:32:28;9.73;;;2.43;;
13335;SDS011;6737;51.480;11.962;2023-02-01T06:34:54;12.73;;;2.60;;
13335;SDS011;6737;51.480;11.962;2023-02-01T06:37:21;12.40;;;2.77;;
13335;SDS011;6737;51.480;11.962;2023-02-01T06:39:48;12.37;;;2.70;;
13335;SDS011;6737;51.480;11.962;2023-02-01T06:42:14;13.83;;;2.60;;
13335;SDS011;6737;51.480;11.962;2023-02-01T06:44:40;12.07;;;3.40;;
13335;SDS011;6737;51.480;11.962;2023-02-01T06:47:05;10.07;;;2.33;;
13335;SDS011;6737;51.480;11.962;2023-02-01T06:49:31;10.17;;;2.83;;
13335;SDS011;6737;51.480;11.962;2023-02-01T06:51:57;10.23;;;3.33;;
13335;SDS011;6737;51.480;11.962;2023-02-01T06:54:25;9.43;;;2.53;;
13335;SDS011;6737;51.480;11.962;2023-02-01T06:56:52;10.97;;;2.80;;
13335;SDS011;6737;51.480;11.962;2023-02-01T06:59:18;9.27;;;2.80;;
13335;SDS011;6737;51.480;11.962;2023-02-01T07:01:43;11.13;;;2.77;;
13335;SDS011;6737;51.480;11.962;2023-02-01T07:04:10;8.67;;;3.00;;
13335;SDS011;6737;51.480;11.962;2023-02-01T07:06:38;8.37;;;3.10;;
13335;SDS011;6737;51.480;11.962;2023-02-01T07:09:04;11.37;;;2.73;;
13335;SDS011;6737;51.480;11.962;2023-02-01T07:11:30;10.10;;;2.80;;
13335;SDS011;6737;51.480;11.962;2023-02-01T07:13:57;11.50;;;3.17;;
13335;SDS011;6737;51.480;11.962;2023-02-01T07:16:23;9.33;;;3.23;;
13335;SDS011;6737;51.480;11.962;2023-02-01T07:18:49;12.07;;;2.87;;
13335;SDS011;6737;51.480;11.962;2023-02-01T07:21:16;9.03;;;2.70;;
13335;SDS011;6737;51.480;11.962;2023-02-01T07:23:42;10.33;;;2.90;;
13335;SDS011;6737;51.480;11.962;2023-02-01T07:26:11;8.97;;;2.73;;
13335;SDS011;6737;51.480;11.962;2023-02-01T07:28:38;9.77;;;2.67;;
13335;SDS011;6737;51.480;11.962;2023-02-01T07:31:05;8.90;;;3.13;;
13335;SDS011;6737;51.480;11.962;2023-02-01T07:33:54;9.80;;;2.47;;
13335;SDS011;6737;51.480;11.962;2023-02-01T07:36:21;9.20;;;2.80;;
13335;SDS011;6737;51.480;11.962;2023-02-01T07:38:47;8.90;;;2.43;;
13335;SDS011;6737;51.480;11.962;2023-02-01T07:41:13;9.70;;;3.00;;
13335;SDS011;6737;51.480;11.962;2023-02-01T07:43:39;8.70;;;2.53;;
13335;SDS011;6737;51.480;11.962;2023-02-01T07:46:05;11.33;;;2.70;;
13335;SDS011;6737;51.480;11.962;2023-02-01T07:48:32;11.27;;;2.63;;
13335;SDS011;6737;51.480;11.962;2023-02-01T07:51:05;14.03;;;3.50;;
13335;SDS011;6737;51.480;11.962;2023-02-01T07:53:35;11.93;;;2.53;;
13335;SDS011;6737;51.480;11.962;2023-02-01T07:56:02;12.90;;;2.90;;
13335;SDS011;6737;51.480;11.962;2023-02-01T07:58:29;8.43;;;2.70;;
13335;SDS011;6737;51.480;11.962;2023-02-01T08:00:55;9.97;;;2.43;;
13335;SDS011;6737;51.480;11.962;2023-02-01T08:03:40;13.37;;;2.33;;
13335;SDS011;6737;51.480;11.962;2023-02-01T08:06:06;7.30;;;2.20;;
13335;SDS011;6737;51.480;11.962;2023-02-01T08:08:32;8.27;;;2.60;;
13335;SDS011;6737;51.480;11.962;2023-02-01T08:10:58;9.20;;;2.57;;
13335;SDS011;6737;51.480;11.962;2023-02-01T08:13:28;9.27;;;2.37;;
13335;SDS011;6737;51.480;11.962;2023-02-01T08:16:00;10.33;;;2.40;;
13335;SDS011;6737;51.480;11.962;2023-02-01T08:18:28;6.87;;;2.30;;
13335;SDS011;6737;51.480;11.962;2023-02-01T08:20:54;8.47;;;2.63;;
13335;SDS011;6737;51.480;11.962;2023-02-01T08:23:20;6.03;;;2.10;;
13335;SDS011;6737;51.480;11.962;2023-02-01T08:25:47;8.03;;;2.47;;
13335;SDS011;6737;51.480;11.962;2023-02-01T08:28:13;5.83;;;2.23;;
13335;SDS011;6737;51.480;11.962;2023-02-01T08:30:39;10.90;;;2.20;;
13335;SDS011;6737;51.480;11.962;2023-02-01T08:33:07;6.03;;;1.93;;
13335;SDS011;6737;51.480;11.962;2023-02-01T08:35:36;6.23;;;2.30;;
13335;SDS011;6737;51.480;11.962;2023-02-01T08:38:02;5.87;;;2.07;;
13335;SDS011;6737;51.480;11.962;2023-02-01T08:40:28;6.27;;;2.13;;
13335;SDS011;6737;51.480;11.962;2023-02-01T08:42:54;7.10;;;2.10;;
13335;SDS011;6737;51.480;11.962;2023-02-01T08:45:21;6.17;;;2.37;;
13335;SDS011;6737;51.480;11.962;2023-02-01T08:47:53;6.27;;;2.07;;
13335;SDS011;6737;51.480;11.962;2023-02-01T08:50:19;8.03;;;2.50;;
13335;SDS011;6737;51.480;11.962;2023-02-01T08:52:46;7.00;;;2.70;;
13335;SDS011;6737;51.480;11.962;2023-02-01T08:55:13;7.37;;;2.50;;
13335;SDS011;6737;51.480;11.962;2023-02-01T08:57:39;7.23;;;2.90;;
13335;SDS011;6737;51.480;11.962;2023-02-01T09:00:06;6.80;;;2.30;;
13335;SDS011;6737;51.480;11.962;2023-02-01T09:02:34;8.47;;;3.50;;
13335;SDS011;6737;51.480;11.962;2023-02-01T09:05:00;9.03;;;2.53;;
13335;SDS011;6737;51.480;11.962;2023-02-01T09:07:26;9.77;;;3.03;;
13335;SDS011;6737;51.480;11.962;2023-02-01T09:09:52;10.67;;;3.00;;
13335;SDS011;6737;51.480;11.962;2023-02-01T09:12:20;11.77;;;3.33;;
13335;SDS011;6737;51.480;11.962;2023-02-01T09:14:45;7.30;;;2.87;;
13335;SDS011;6737;51.480;11.962;2023-02-01T09:17:11;9.20;;;3.07;;
13335;SDS011;6737;51.480;11.962;2023-02-01T09:19:39;8.27;;;2.77;;
13335;SDS011;6737;51.480;11.962;2023-02-01T09:22:05;10.60;;;3.30;;
13335;SDS011;6737;51.480;11.962;2023-02-01T09:24:31;11.20;;;3.37;;
13335;SDS011;6737;51.480;11.962;2023-02-01T09:26:56;11.40;;;3.70;;
13335;SDS011;6737;51.480;11.962;2023-02-01T09:29:22;10.57;;;3.33;;
13335;SDS011;6737;51.480;11.962;2023-02-01T09:31:48;6.67;;;3.03;;
13335;SDS011;6737;51.480;11.962;2023-02-01T09:34:14;9.43;;;3.40;;
13335;SDS011;6737;51.480;11.962;2023-02-01T09:36:39;9.97;;;3.60;;
13335;SDS011;6737;51.480;11.962;2023-02-01T09:39:05;11.43;;;3.63;;
13335;SDS011;6737;51.480;11.962;2023-02-01T09:41:56;9.60;;;3.57;;
13335;SDS011;6737;51.480;11.962;2023-02-01T09:44:49;9.60;;;3.37;;
13335;SDS011;6737;51.480;11.962;2023-02-01T09:47:34;8.23;;;3.10;;
13335;SDS011;6737;51.480;11.962;2023-02-01T09:50:05;8.20;;;2.97;;
13335;SDS011;6737;51.480;11.962;2023-02-01T09:52:45;9.17;;;2.90;;
13335;SDS011;6737;51.480;11.962;2023-02-01T09:55:51;7.60;;;2.80;;
13335;SDS011;6737;51.480;11.962;2023-02-01T09:58:23;7.23;;;2.90;;
13335;SDS011;6737;51.480;11.962;2023-02-01T10:00:59;7.80;;;2.70;;
13335;SDS011;6737;51.480;11.962;2023-02-01T10:03:29;10.13;;;2.70;;
13335;SDS011;6737;51.480;11.962;2023-02-01T10:09:16;7.60;;;2.70;;
13335;SDS011;6737;51.480;11.962;2023-02-01T10:27:39;9.07;;;2.40;;
13335;SDS011;6737;51.480;11.962;2023-02-01T10:32:38;9.93;;;2.43;;
13335;SDS011;6737;51.480;11.962;2023-02-01T10:35:12;8.40;;;2.60;;
13335;SDS011;6737;51.480;11.962;2023-02-01T10:37:39;8.20;;;2.53;;
13335;SDS011;6737;51.480;11.962;2023-02-01T10:40:20;7.43;;;2.40;;
13335;SDS011;6737;51.480;11.962;2023-02-01T10:42:53;4.97;;;2.03;;
13335;SDS011;6737;51.480;11.962;2023-02-01T10:45:22;7.70;;;2.37;;
13335;SDS011;6737;51.480;11.962;2023-02-01T10:47:53;6.00;;;1.80;;
13335;SDS011;6737;51.480;11.962;2023-02-01T10:53:15;8.40;;;2.20;;
13335;SDS011;6737;51.480;11.962;2023-02-01T10:55:50;10.97;;;2.50;;
13335;SDS011;6737;51.480;11.962;2023-02-01T10:58:27;7.87;;;2.30;;
13335;SDS011;6737;51.480;11.962;2023-02-01T11:00:58;7.70;;;2.37;;
13335;SDS011;6737;51.480;11.962;2023-02-01T11:03:41;9.90;;;2.03;;
13335;SDS011;6737;51.480;11.962;2023-02-01T11:06:24;7.97;;;2.10;;
13335;SDS011;6737;51.480;11.962;2023-02-01T11:11:31;6.73;;;1.93;;
13335;SDS011;6737;51.480;11.962;2023-02-01T11:13:58;5.87;;;1.90;;
13335;SDS011;6737;51.480;11.962;2023-02-01T11:16:30;7.00;;;2.13;;
13335;SDS011;6737;51.480;11.962;2023-02-01T11:19:03;6.73;;;1.97;;
13335;SDS011;6737;51.480;11.962;2023-02-01T11:21:29;6.63;;;1.97;;
13335;SDS011;6737;51.480;11.962;2023-02-01T11:23:55;9.47;;;2.00;;
13335;SDS011;6737;51.480;11.962;2023-02-01T11:26:27;6.07;;;1.93;;
13335;SDS011;6737;51.480;11.962;2023-02-01T11:28:57;7.67;;;2.40;;
13335;SDS011;6737;51.480;11.962;2023-02-01T11:31:35;6.47;;;2.30;;
13335;SDS011;6737;51.480;11.962;2023-02-01T11:34:05;8.70;;;2.43;;
13335;SDS011;6737;51.480;11.962;2023-02-01T11:36:44;8.27;;;2.17;;
13335;SDS011;6737;51.480;11.962;2023-02-01T11:44:43;8.90;;;2.37;;
13335;SDS011;6737;51.480;11.962;2023-02-01T11:47:23;8.20;;;2.57;;
13335;SDS011;6737;51.480;11.962;2023-02-01T11:49:55;9.20;;;2.60;;
13335;SDS011;6737;51.480;11.962;2023-02-01T12:03:26;6.60;;;2.17;;
13335;SDS011;6737;51.480;11.962;2023-02-01T12:12:17;9.10;;;2.27;;
13335;SDS011;6737;51.480;11.962;2023-02-01T12:31:11;7.67;;;2.37;;
13335;SDS011;6737;51.480;11.962;2023-02-01T12:34:22;6.60;;;1.77;;
13335;SDS011;6737;51.480;11.962;2023-02-01T12:36:59;9.20;;;2.17;;
13335;SDS011;6737;51.480;11.962;2023-02-01T12:39:40;7.57;;;2.33;;
13335;SDS011;6737;51.480;11.962;2023-02-01T12:42:37;6.87;;;2.23;;
13335;SDS011;6737;51.480;11.962;2023-02-01T12:47:56;6.87;;;1.83;;
13335;SDS011;6737;51.480;11.962;2023-02-01T12:50:43;6.30;;;1.77;;
13335;SDS011;6737;51.480;11.962;2023-02-01T12:53:15;6.90;;;1.80;;
13335;SDS011;6737;51.480;11.962;2023-02-01T12:55:55;9.40;;;1.83;;
13335;SDS011;6737;51.480;11.962;2023-02-01T12:58:27;4.30;;;1.63;;
13335;SDS011;6737;51.480;11.962;2023-02-01T13:06:16;7.30;;;1.93;;
13335;SDS011;6737;51.480;11.962;2023-02-01T13:11:40;11.40;;;2.67;;
13335;SDS011;6737;51.480;11.962;2023-02-01T13:14:22;8.40;;;2.10;;
13335;SDS011;6737;51.480;11.962;2023-02-01T13:17:02;9.73;;;2.23;;
13335;SDS011;6737;51.480;11.962;2023-02-01T13:19:44;7.63;;;2.10;;
13335;SDS011;6737;51.480;11.962;2023-02-01T13:22:19;6.50;;;1.77;;
13335;SDS011;6737;51.480;11.962;2023-02-01T13:25:12;7.37;;;2.13;;
13335;SDS011;6737;51.480;11.962;2023-02-01T13:27:38;6.67;;;1.80;;
13335;SDS011;6737;51.480;11.962;2023-02-01T13:30:10;8.13;;;2.30;;
13335;SDS011;6737;51.480;11.962;2023-02-01T13:38:37;9.77;;;2.00;;
13335;SDS011;6737;51.480;11.962;2023-02-01T13:43:56;6.70;;;1.80;;
13335;SDS011;6737;51.480;11.962;2023-02-01T13:46:26;9.47;;;1.90;;
13335;SDS011;6737;51.480;11.962;2023-02-01T13:48:54;7.60;;;1.90;;
13335;SDS011;6737;51.480;11.962;2023-02-01T13:51:40;7.57;;;2.20;;
13335;SDS011;6737;51.480;11.962;2023-02-01T13:56:54;8.50;;;2.03;;
13335;SDS011;6737;51.480;11.962;2023-02-01T14:05:01;7.17;;;2.20;;
13335;SDS011;6737;51.480;11.962;2023-02-01T14:07:27;7.80;;;2.13;;
13335;SDS011;6737;51.480;11.962;2023-02-01T14:09:53;7.37;;;2.10;;
13335;SDS011;6737;51.480;11.962;2023-02-01T14:15:20;9.23;;;2.27;;
13335;SDS011;6737;51.480;11.962;2023-02-01T14:17:51;5.73;;;2.17;;
13335;SDS011;6737;51.480;11.962;2023-02-01T14:23:11;8.03;;;2.00;;
13335;SDS011;6737;51.480;11.962;2023-02-01T14:25:43;7.37;;;2.30;;
13335;SDS011;6737;51.480;11.962;2023-02-01T14:28:31;11.43;;;2.20;;
13335;SDS011;6737;51.480;11.962;2023-02-01T14:30:56;5.30;;;2.00;;
13335;SDS011;6737;51.480;11.962;2023-02-01T14:33:25;8.40;;;2.17;;
13335;SDS011;6737;51.480;11.962;2023-02-01T14:36:11;7.37;;;2.47;;
13335;SDS011;6737;51.480;11.962;2023-02-01T14:38:39;8.07;;;2.20;;
13335;SDS011;6737;51.480;11.962;2023-02-01T14:41:24;6.20;;;2.20;;
13335;SDS011;6737;51.480;11.962;2023-02-01T14:49:30;8.53;;;2.07;;
13335;SDS011;6737;51.480;11.962;2023-02-01T14:51:59;5.57;;;2.10;;
13335;SDS011;6737;51.480;11.962;2023-02-01T14:54:31;5.70;;;2.23;;
13335;SDS011;6737;51.480;11.962;2023-02-01T14:56:58;6.57;;;2.27;;
13335;SDS011;6737;51.480;11.962;2023-02-01T14:59:24;6.73;;;2.47;;
13335;SDS011;6737;51.480;11.962;2023-02-01T15:01:58;7.37;;;2.53;;
13335;SDS011;6737;51.480;11.962;2023-02-01T15:04:26;8.27;;;2.43;;
13335;SDS011;6737;51.480;11.962;2023-02-01T15:07:03;8.83;;;2.60;;
13335;SDS011;6737;51.480;11.962;2023-02-01T15:17:20;5.57;;;2.07;;
13335;SDS011;6737;51.480;11.962;2023-02-01T15:19:54;5.23;;;2.10;;
13335;SDS011;6737;51.480;11.962;2023-02-01T15:22:25;7.53;;;2.50;;
13335;SDS011;6737;51.480;11.962;2023-02-01T15:24:53;6.53;;;2.20;;
13335;SDS011;6737;51.480;11.962;2023-02-01T15:27:23;7.20;;;2.50;;
13335;SDS011;6737;51.480;11.962;2023-02-01T15:29:51;6.70;;;1.87;;
13335;SDS011;6737;51.480;11.962;2023-02-01T15:32:29;6.27;;;2.50;;
13335;SDS011;6737;51.480;11.962;2023-02-01T15:34:58;7.53;;;2.00;;
13335;SDS011;6737;51.480;11.962;2023-02-01T15:37:27;7.63;;;2.17;;
13335;SDS011;6737;51.480;11.962;2023-02-01T15:42:37;8.77;;;2.23;;
13335;SDS011;6737;51.480;11.962;2023-02-01T15:45:19;8.93;;;2.03;;
13335;SDS011;6737;51.480;11.962;2023-02-01T15:47:50;4.43;;;1.20;;
13335;SDS011;6737;51.480;11.962;2023-02-01T15:50:18;2.30;;;0.97;;
13335;SDS011;6737;51.480;11.962;2023-02-01T15:52:49;1.87;;;0.80;;
13335;SDS011;6737;51.480;11.962;2023-02-01T15:55:20;1.27;;;0.70;;
13335;SDS011;6737;51.480;11.962;2023-02-01T15:57:56;0.73;;;0.60;;
13335;SDS011;6737;51.480;11.962;2023-02-01T16:00:23;0.53;;;0.50;;
13335;SDS011;6737;51.480;11.962;2023-02-01T16:02:55;1.93;;;0.70;;
13335;SDS011;6737;51.480;11.962;2023-02-01T16:08:03;0.90;;;0.60;;
13335;SDS011;6737;51.480;11.962;2023-02-01T16:10:39;1.03;;;0.60;;
13335;SDS011;6737;51.480;11.962;2023-02-01T16:13:13;1.80;;;0.60;;
13335;SDS011;6737;51.480;11.962;2023-02-01T16:15:40;0.70;;;0.43;;
13335;SDS011;6737;51.480;11.962;2023-02-01T16:18:07;0.53;;;0.50;;
13335;SDS011;6737;51.480;11.962;2023-02-01T16:20:35;0.80;;;0.60;;
13335;SDS011;6737;51.480;11.962;2023-02-01T16:23:03;0.80;;;0.50;;
13335;SDS011;6737;51.480;11.962;2023-02-01T16:25:29;3.70;;;0.60;;
13335;SDS011;6737;51.480;11.962;2023-02-01T16:27:55;0.80;;;0.50;;
13335;SDS011;6737;51.480;11.962;2023-02-01T16:30:21;0.50;;;0.50;;
13335;SDS011;6737;51.480;11.962;2023-02-01T16:32:53;1.70;;;0.70;;
13335;SDS011;6737;51.480;11.962;2023-02-01T16:35:24;1.43;;;0.80;;
13335;SDS011;6737;51.480;11.962;2023-02-01T16:37:52;0.90;;;0.50;;
13335;SDS011;6737;51.480;11.962;2023-02-01T16:40:18;1.63;;;0.60;;
13335;SDS011;6737;51.480;11.962;2023-02-01T16:42:47;2.53;;;0.60;;
13335;SDS011;6737;51.480;11.962;2023-02-01T16:45:16;3.10;;;0.70;;
13335;SDS011;6737;51.480;11.962;2023-02-01T16:47:44;2.53;;;0.90;;
13335;SDS011;6737;51.480;11.962;2023-02-01T16:50:24;2.07;;;0.80;;
13335;SDS011;6737;51.480;11.962;2023-02-01T16:52:51;0.67;;;0.60;;
13335;SDS011;6737;51.480;11.962;2023-02-01T16:55:18;1.63;;;0.90;;
13335;SDS011;6737;51.480;11.962;2023-02-01T16:57:46;2.13;;;1.00;;
13335;SDS011;6737;51.480;11.962;2023-02-01T17:00:13;2.13;;;0.80;;
13335;SDS011;6737;51.480;11.962;2023-02-01T17:02:42;3.03;;;0.80;;
13335;SDS011;6737;51.480;11.962;2023-02-01T17:05:10;1.83;;;0.70;;
13335;SDS011;6737;51.480;11.962;2023-02-01T17:07:36;2.87;;;0.90;;
13335;SDS011;6737;51.480;11.962;2023-02-01T17:10:05;3.53;;;0.90;;
13335;SDS011;6737;51.480;11.962;2023-02-01T17:12:32;1.73;;;0.80;;
13335;SDS011;6737;51.480;11.962;2023-02-01T17:14:58;1.33;;;0.70;;
13335;SDS011;6737;51.480;11.962;2023-02-01T17:17:46;1.47;;;0.70;;
13335;SDS011;6737;51.480;11.962;2023-02-01T17:20:20;2.97;;;1.03;;
13335;SDS011;6737;51.480;11.962;2023-02-01T17:22:49;3.33;;;0.77;;
13335;SDS011;6737;51.480;11.962;2023-02-01T17:25:16;1.30;;;0.70;;
13335;SDS011;6737;51.480;11.962;2023-02-01T17:27:43;3.33;;;0.80;;